Pagrindinis puslapis
METAR-TAF:

METAR-TAF

Oro uostai :

Rerusas, Norvegija

platuma: 62-35N, ilguma: 011-21E, Aukštis: 626 m

Dabartinis oras

Ataskaita buvo paskelbta 27 minutes, ne 07:20 UTC
Ramus vėjas
Temperatūra -25°C
Drėgmė 76%
Slėgis 1011 hPa
Matomumas 10 km arba daugiau
Mažai debesys ne aukštis 2400 ft

METAR: ENRO 100720Z AUTO 00000KT 9999 FEW024 M25/M28 Q1011

Laikas: 08:47 (07:47 UTC)

Prognozė

Ataskaita buvo paskelbta 20 valandos ir 47 minutes, ne 11:00 UTC
Prognozė galioja nuo 09 metu 12 UTC su 09 metu 19 UTC
Vėjas 1 kt nuo kintamojo kryptimis
Matomumas 10 km arba daugiau
Su prošvaistėmis ne aukštis 2000 ft
Laikinai
nuo 09 metu 12 UTC su 09 metu 19 UTC
Matomumas: 4000 m
Su prošvaistėmis ne aukštis 800 ft
sniegas

TAF: ENRO 091100Z 0912/0919 VRB01KT 9999 BKN020 TEMPO 0912/0919 4000 -SN BKN008

Orai ataskaitas ir orų prognozės (METAR, TAF).

turimą stotys yra geltonos ir raudonos taškus žemėlapyje.

Perkelti pele per norėdami pamatyti stoties vardą.

Tada spustelėkite, norėdami matyti oro stebėjimo ir prognozės.

Norėdami pakeisti žemėlapį: spustelėkite ant žalios mygtukų su juodo kryžiaus žemyn,; žalią mygtuką su brūkšneliu, jei norite nutolinti; arba žalių rodyklių gretimoms žemėlapius.


METAR-TAF: